FredonyerEastRWIS Atmospheric Data: 10/17/2020 Summary  Detailed Graphs  Station List

  Temperature     Wind Precipitation Visibility
Timestamp Air Wet
Bulb
Dew-
point
24-hr
Max
24-hr
Min
Relative
Humidity
Atmospheric
Pressure
Avg
Speed
Avg
Dir
Spot
Speed
Spot
Dir
Max
Speed
Max
Dir
  Rate Situation Start End 1 hr 3 hr 6 hr 12 hr 24 hr   Situation
Date Time °F °F °F °F °F % in Hg mph ° mph ° mph ° Y/N in/hr text Date Time Date Time in in in in in mi text
10/17/2020 12:08 AM 41.36 33.98 20.84 71.60 31.28 43.0 Not Reported 0.45 NW 0.89 NW 1.12 NW No 0.000 No Precipitation 10/10/2020 08:27 PM 10/10/2020 08:32 PM 0.000 0.000 0.000 0.000 0.000 Not Reported Not Reported
10/17/2020 12:23 AM 41.36 33.98 21.02 71.60 31.28 43.0 Not Reported 1.34 NW 1.12 N 1.79 NW No 0.000 No Precipitation 10/10/2020 08:27 PM 10/10/2020 08:32 PM 0.000 0.000 0.000 0.000 0.000 Not Reported Not Reported
10/17/2020 12:39 AM 40.82 33.44 20.12 71.60 31.28 43.0 Not Reported 0.00 N 0.00 N 0.00 SE No 0.000 No Precipitation 10/10/2020 08:27 PM 10/10/2020 08:32 PM 0.000 0.000 0.000 0.000 0.000 Not Reported Not Reported
10/17/2020 12:53 AM 41.00 33.62 20.66 71.60 31.28 43.0 Not Reported 0.00 N 0.00 N 1.79 NW No 0.000 No Precipitation 10/10/2020 08:27 PM 10/10/2020 08:32 PM 0.000 0.000 0.000 0.000 0.000 Not Reported Not Reported
10/17/2020 01:08 AM 40.64 33.62 21.38 71.60 31.28 45.0 Not Reported 0.45 NW 0.45 NW 0.89 NW No 0.000 No Precipitation 10/10/2020 08:27 PM 10/10/2020 08:32 PM 0.000 0.000 0.000 0.000 0.000 Not Reported Not Reported
10/17/2020 01:23 AM 40.10 33.26 21.38 71.60 31.28 46.0 Not Reported 0.00 N 0.00 N 0.00 N No 0.000 No Precipitation 10/10/2020 08:27 PM 10/10/2020 08:32 PM 0.000 0.000 0.000 0.000 0.000 Not Reported Not Reported
10/17/2020 01:38 AM 40.28 33.08 20.30 71.60 31.28 44.0 Not Reported 0.67 N 0.67 N 0.89 N No 0.000 No Precipitation 10/10/2020 08:27 PM 10/10/2020 08:32 PM 0.000 0.000 0.000 0.000 0.000 Not Reported Not Reported
10/17/2020 01:53 AM 40.10 33.26 21.38 71.60 31.28 46.0 Not Reported 0.00 N 1.12 N 1.12 N No 0.000 No Precipitation 10/10/2020 08:27 PM 10/10/2020 08:32 PM 0.000 0.000 0.000 0.000 0.000 Not Reported Not Reported
10/17/2020 02:09 AM 40.28 33.44 21.20 71.60 31.28 45.0 Not Reported 0.45 NW 0.89 NW 1.34 NW No 0.000 No Precipitation 10/10/2020 08:27 PM 10/10/2020 08:32 PM 0.000 0.000 0.000 0.000 0.000 Not Reported Not Reported
10/17/2020 02:23 AM 40.28 33.26 20.66 71.60 31.28 44.0 Not Reported 0.00 N 0.00 NW 0.00 NW No 0.000 No Precipitation 10/10/2020 08:27 PM 10/10/2020 08:32 PM 0.000 0.000 0.000 0.000 0.000 Not Reported Not Reported
10/17/2020 02:39 AM 40.10 33.26 21.02 71.60 31.28 46.0 Not Reported 0.89 W 1.34 NW 1.34 N No 0.000 No Precipitation 10/10/2020 08:27 PM 10/10/2020 08:32 PM 0.000 0.000 0.000 0.000 0.000 Not Reported Not Reported
10/17/2020 02:53 AM 40.10 33.26 21.38 71.60 31.28 46.0 Not Reported 0.00 N 0.45 N 0.45 N No 0.000 No Precipitation 10/10/2020 08:27 PM 10/10/2020 08:32 PM 0.000 0.000 0.000 0.000 0.000 Not Reported Not Reported
10/17/2020 03:08 AM 39.74 33.08 21.74 71.60 31.28 47.0 Not Reported 0.00 N 0.00 NW 1.79 NW No 0.000 No Precipitation 10/10/2020 08:27 PM 10/10/2020 08:32 PM 0.000 0.000 0.000 0.000 0.000 Not Reported Not Reported
10/17/2020 03:23 AM 39.56 32.90 21.38 71.60 31.28 47.0 Not Reported 0.00 N 0.00 NW 1.34 NW No 0.000 No Precipitation 10/10/2020 08:27 PM 10/10/2020 08:32 PM 0.000 0.000 0.000 0.000 0.000 Not Reported Not Reported
10/17/2020 03:39 AM 40.10 33.44 22.28 71.60 31.28 48.0 Not Reported 1.12 NW 1.34 NW 2.01 NW No 0.000 No Precipitation 10/10/2020 08:27 PM 10/10/2020 08:32 PM 0.000 0.000 0.000 0.000 0.000 Not Reported Not Reported
10/17/2020 03:53 AM 40.28 33.80 23.00 71.60 31.28 49.0 Not Reported 0.22 NW 0.45 N 1.12 N No 0.000 No Precipitation 10/10/2020 08:27 PM 10/10/2020 08:32 PM 0.000 0.000 0.000 0.000 0.000 Not Reported Not Reported
10/17/2020 04:09 AM 39.92 33.44 22.64 71.60 31.28 49.0 Not Reported 0.00 N 0.00 SW 0.22 SW No 0.000 No Precipitation 10/10/2020 08:27 PM 10/10/2020 08:32 PM 0.000 0.000 0.000 0.000 0.000 Not Reported Not Reported
10/17/2020 04:23 AM 40.28 33.62 22.82 71.60 31.28 48.0 Not Reported 0.45 NW 0.22 N 0.89 N No 0.000 No Precipitation 10/10/2020 08:27 PM 10/10/2020 08:32 PM 0.000 0.000 0.000 0.000 0.000 Not Reported Not Reported
10/17/2020 04:38 AM 39.56 33.44 23.36 71.60 31.28 51.0 Not Reported 0.00 N 0.00 NW 0.45 NE No 0.000 No Precipitation 10/10/2020 08:27 PM 10/10/2020 08:32 PM 0.000 0.000 0.000 0.000 0.000 Not Reported Not Reported
10/17/2020 04:53 AM 39.02 33.44 24.44 71.60 31.28 55.0 Not Reported 0.00 N 0.00 W 0.45 SW No 0.000 No Precipitation 10/10/2020 08:27 PM 10/10/2020 08:32 PM 0.000 0.000 0.000 0.000 0.000 Not Reported Not Reported
10/17/2020 05:08 AM 38.66 33.26 24.62 71.60 31.28 56.0 Not Reported 0.00 N 0.00 NW 0.00 NW No 0.000 No Precipitation 10/10/2020 08:27 PM 10/10/2020 08:32 PM 0.000 0.000 0.000 0.000 0.000 Not Reported Not Reported
10/17/2020 05:23 AM 39.56 33.98 24.62 71.60 31.28 54.0 Not Reported 0.00 N 0.00 W 1.12 NW No 0.000 No Precipitation 10/10/2020 08:27 PM 10/10/2020 08:32 PM 0.000 0.000 0.000 0.000 0.000 Not Reported Not Reported
10/17/2020 05:39 AM 39.02 33.80 25.52 71.60 31.28 57.0 Not Reported 0.00 N 0.00 SW 0.22 NW No 0.000 No Precipitation 10/10/2020 08:27 PM 10/10/2020 08:32 PM 0.000 0.000 0.000 0.000 0.000 Not Reported Not Reported
10/17/2020 05:53 AM 39.20 34.16 26.24 71.60 31.28 58.0 Not Reported 0.00 N 0.67 N 1.12 N No 0.000 No Precipitation 10/10/2020 08:27 PM 10/10/2020 08:32 PM 0.000 0.000 0.000 0.000 0.000 Not Reported Not Reported
10/17/2020 06:09 AM 39.20 33.98 25.52 71.60 31.28 57.0 Not Reported 0.00 N 0.00 N 0.89 NE No 0.000 No Precipitation 10/10/2020 08:27 PM 10/10/2020 08:32 PM 0.000 0.000 0.000 0.000 0.000 Not Reported Not Reported
10/17/2020 06:23 AM 38.66 33.98 26.24 71.60 31.28 60.0 Not Reported 0.22 W 0.45 W 1.57 NW No 0.000 No Precipitation 10/10/2020 08:27 PM 10/10/2020 08:32 PM 0.000 0.000 0.000 0.000 0.000 Not Reported Not Reported
10/17/2020 06:38 AM 38.48 33.80 26.60 71.60 31.28 61.0 Not Reported 1.34 NW 1.12 N 1.57 N No 0.000 No Precipitation 10/10/2020 08:27 PM 10/10/2020 08:32 PM 0.000 0.000 0.000 0.000 0.000 Not Reported Not Reported
10/17/2020 06:53 AM 38.66 33.80 26.06 71.60 31.28 60.0 Not Reported 0.45 S 0.00 W 1.57 SW No 0.000 No Precipitation 10/10/2020 08:27 PM 10/10/2020 08:32 PM 0.000 0.000 0.000 0.000 0.000 Not Reported Not Reported
10/17/2020 07:08 AM 38.66 33.44 24.80 71.60 31.28 56.0 Not Reported 0.00 W 0.00 NW 0.45 N No 0.000 No Precipitation 10/10/2020 08:27 PM 10/10/2020 08:32 PM 0.000 0.000 0.000 0.000 0.000 Not Reported Not Reported
10/17/2020 07:23 AM 38.66 34.34 27.68 71.60 31.64 63.0 Not Reported 0.67 NW 0.67 NW 0.89 NW No 0.000 No Precipitation 10/10/2020 08:27 PM 10/10/2020 08:32 PM 0.000 0.000 0.000 0.000 0.000 Not Reported Not Reported
10/17/2020 07:38 AM 39.02 34.70 28.22 71.60 31.64 64.0 Not Reported 0.00 N 0.00 NW 0.89 NW No 0.000 No Precipitation 10/10/2020 08:27 PM 10/10/2020 08:32 PM 0.000 0.000 0.000 0.000 0.000 Not Reported Not Reported
10/17/2020 07:53 AM 40.82 35.78 28.76 71.60 32.18 61.0 Not Reported 0.00 N 0.00 N 0.67 N No 0.000 No Precipitation 10/10/2020 08:27 PM 10/10/2020 08:32 PM 0.000 0.000 0.000 0.000 0.000 Not Reported Not Reported
10/17/2020 08:08 AM 41.54 36.32 28.76 71.60 33.26 59.0 Not Reported 0.00 N 0.00 NE 0.00 NE No 0.000 No Precipitation 10/10/2020 08:27 PM 10/10/2020 08:32 PM 0.000 0.000 0.000 0.000 0.000 Not Reported Not Reported
10/17/2020 08:23 AM 43.70 37.76 29.66 71.60 35.42 56.0 Not Reported 0.89 S 0.67 S 1.12 S No 0.000 No Precipitation 10/10/2020 08:27 PM 10/10/2020 08:32 PM 0.000 0.000 0.000 0.000 0.000 Not Reported Not Reported
10/17/2020 08:38 AM 47.48 40.10 30.38 71.60 38.30 50.0 Not Reported 0.00 E 1.57 NE 1.57 NE No 0.000 No Precipitation 10/10/2020 08:27 PM 10/10/2020 08:32 PM 0.000 0.000 0.000 0.000 0.000 Not Reported Not Reported
10/17/2020 08:53 AM 47.66 39.74 28.94 71.60 38.30 47.0 Not Reported 1.12 S 0.89 S 4.25 SE No 0.000 No Precipitation 10/10/2020 08:27 PM 10/10/2020 08:32 PM 0.000 0.000 0.000 0.000 0.000 Not Reported Not Reported
10/17/2020 09:09 AM 51.80 42.26 29.84 71.60 38.30 42.0 Not Reported 2.01 SE 1.79 SE 2.24 SE No 0.000 No Precipitation 10/10/2020 08:27 PM 10/10/2020 08:32 PM 0.000 0.000 0.000 0.000 0.000 Not Reported Not Reported
10/17/2020 09:23 AM 55.76 44.42 30.56 71.60 38.30 37.0 Not Reported 0.67 SE 0.45 SE 1.79 SE No 0.000 No Precipitation 10/10/2020 08:27 PM 10/10/2020 08:32 PM 0.000 0.000 0.000 0.000 0.000 Not Reported Not Reported
10/17/2020 09:38 AM 55.40 44.06 30.20 71.60 38.30 37.0 Not Reported 3.13 S 2.91 S 3.80 S No 0.000 No Precipitation 10/10/2020 08:27 PM 10/10/2020 08:32 PM 0.000 0.000 0.000 0.000 0.000 Not Reported Not Reported
10/17/2020 09:53 AM 61.70 47.30 30.38 71.60 38.30 30.0 Not Reported 1.79 NE 1.57 E 3.36 NE No 0.000 No Precipitation 10/10/2020 08:27 PM 10/10/2020 08:32 PM 0.000 0.000 0.000 0.000 0.000 Not Reported Not Reported
10/17/2020 10:08 AM 62.60 47.66 30.56 71.60 38.30 29.0 Not Reported 1.79 E 1.12 NE 2.68 S No 0.000 No Precipitation 10/10/2020 08:27 PM 10/10/2020 08:32 PM 0.000 0.000 0.000 0.000 0.000 Not Reported Not Reported
10/17/2020 10:23 AM 65.66 48.92 30.02 71.60 38.30 25.0 Not Reported 1.34 NE 1.79 SW 3.36 E No 0.000 No Precipitation 10/10/2020 08:27 PM 10/10/2020 08:32 PM 0.000 0.000 0.000 0.000 0.000 Not Reported Not Reported
10/17/2020 10:39 AM 68.00 49.46 27.50 71.60 38.30 20.0 Not Reported 3.80 SE 1.12 SW 4.47 SE No 0.000 No Precipitation 10/10/2020 08:27 PM 10/10/2020 08:32 PM 0.000 0.000 0.000 0.000 0.000 Not Reported Not Reported
10/17/2020 10:53 AM 71.06 50.72 26.96 71.60 38.30 19.0 Not Reported 2.24 E 3.13 SE 4.47 SE No 0.000 No Precipitation 10/10/2020 08:27 PM 10/10/2020 08:32 PM 0.000 0.000 0.000 0.000 0.000 Not Reported Not Reported
10/17/2020 11:08 AM 71.24 50.72 27.32 71.78 38.30 19.0 Not Reported 2.91 E 2.01 S 4.70 SE No 0.000 No Precipitation 10/10/2020 08:27 PM 10/10/2020 08:32 PM 0.000 0.000 0.000 0.000 0.000 Not Reported Not Reported
10/17/2020 11:23 AM 71.42 50.90 27.14 72.32 38.30 18.0 Not Reported 2.68 SE 4.47 SE 4.70 SE No 0.000 No Precipitation 10/10/2020 08:27 PM 10/10/2020 08:32 PM 0.000 0.000 0.000 0.000 0.000 Not Reported Not Reported
10/17/2020 11:38 AM 69.80 50.36 27.68 72.32 38.30 20.0 Not Reported 4.25 S 4.70 S 5.14 SE No 0.000 No Precipitation 10/10/2020 08:27 PM 10/10/2020 08:32 PM 0.000 0.000 0.000 0.000 0.000 Not Reported Not Reported
10/17/2020 11:53 AM 73.58 51.98 28.04 74.30 38.30 18.0 Not Reported 2.46 SE 5.82 SE 5.82 SE No 0.000 No Precipitation 10/10/2020 08:27 PM 10/10/2020 08:32 PM 0.000 0.000 0.000 0.000 0.000 Not Reported Not Reported
10/17/2020 12:08 PM 73.40 51.98 28.22 74.30 38.30 18.0 Not Reported 2.91 SE 1.12 SE 4.70 SE No 0.000 No Precipitation 10/10/2020 08:27 PM 10/10/2020 08:32 PM 0.000 0.000 0.000 0.000 0.000 Not Reported Not Reported
10/17/2020 12:23 PM 73.04 52.16 29.12 74.84 38.30 19.0 Not Reported 4.92 SE 1.79 E 6.49 SE No 0.000 No Precipitation 10/10/2020 08:27 PM 10/10/2020 08:32 PM 0.000 0.000 0.000 0.000 0.000 Not Reported Not Reported
10/17/2020 12:38 PM 74.84 53.06 29.84 75.20 38.30 18.0 Not Reported 4.70 SE 4.03 S 7.38 S No 0.000 No Precipitation 10/10/2020 08:27 PM 10/10/2020 08:32 PM 0.000 0.000 0.000 0.000 0.000 Not Reported Not Reported
10/17/2020 12:53 PM 74.12 52.70 30.02 76.10 38.30 19.0 Not Reported 1.34 W 6.04 S 6.04 S No 0.000 No Precipitation 10/10/2020 08:27 PM 10/10/2020 08:32 PM 0.000 0.000 0.000 0.000 0.000 Not Reported Not Reported
10/17/2020 01:08 PM 75.20 53.24 30.20 76.10 38.30 18.0 Not Reported 2.01 N 3.36 NW 5.14 SE No 0.000 No Precipitation 10/10/2020 08:27 PM 10/10/2020 08:32 PM 0.000 0.000 0.000 0.000 0.000 Not Reported Not Reported
10/17/2020 01:23 PM 75.74 53.60 30.74 76.10 38.30 19.0 Not Reported 2.46 SE 2.01 E 5.82 SE No 0.000 No Precipitation 10/10/2020 08:27 PM 10/10/2020 08:32 PM 0.000 0.000 0.000 0.000 0.000 Not Reported Not Reported
10/17/2020 01:39 PM 76.46 53.96 30.74 78.26 38.30 18.0 Not Reported 3.36 SE 3.80 NW 4.25 SE No 0.000 No Precipitation 10/10/2020 08:27 PM 10/10/2020 08:32 PM 0.000 0.000 0.000 0.000 0.000 Not Reported Not Reported
10/17/2020 01:53 PM 75.20 53.60 31.46 78.26 38.30 19.0 Not Reported 4.70 S 5.82 SE 9.17 SE No 0.000 No Precipitation 10/10/2020 08:27 PM 10/10/2020 08:32 PM 0.000 0.000 0.000 0.000 0.000 Not Reported Not Reported
10/17/2020 02:08 PM 76.64 54.14 31.28 78.26 38.30 18.0 Not Reported 2.68 NE 3.58 SE 6.49 E No 0.000 No Precipitation 10/10/2020 08:27 PM 10/10/2020 08:32 PM 0.000 0.000 0.000 0.000 0.000 Not Reported Not Reported
10/17/2020 02:23 PM 76.10 53.78 30.74 78.62 38.30 18.0 Not Reported 3.36 SE 6.49 E 7.16 SE No 0.000 No Precipitation 10/10/2020 08:27 PM 10/10/2020 08:32 PM 0.000 0.000 0.000 0.000 0.000 Not Reported Not Reported
10/17/2020 02:38 PM 77.00 54.32 30.92 78.62 38.30 18.0 Not Reported 1.57 S 2.46 SW 4.25 E No 0.000 No Precipitation 10/10/2020 08:27 PM 10/10/2020 08:32 PM 0.000 0.000 0.000 0.000 0.000 Not Reported Not Reported
10/17/2020 02:53 PM 78.26 54.86 31.10 78.62 38.30 17.0 Not Reported 1.57 SE 2.01 E 6.26 SE No 0.000 No Precipitation 10/10/2020 08:27 PM 10/10/2020 08:32 PM 0.000 0.000 0.000 0.000 0.000 Not Reported Not Reported
10/17/2020 03:08 PM 78.44 55.04 31.46 79.16 38.30 17.0 Not Reported 3.36 SE 3.13 SE 5.82 SE No 0.000 No Precipitation 10/10/2020 08:27 PM 10/10/2020 08:32 PM 0.000 0.000 0.000 0.000 0.000 Not Reported Not Reported
10/17/2020 03:23 PM 78.26 54.86 31.46 79.16 38.30 17.0 Not Reported 2.24 E 2.46 SE 4.92 E No 0.000 No Precipitation 10/10/2020 08:27 PM 10/10/2020 08:32 PM 0.000 0.000 0.000 0.000 0.000 Not Reported Not Reported
10/17/2020 03:38 PM 75.92 53.96 31.64 79.16 38.30 19.0 Not Reported 4.92 SE 4.70 SE 6.26 SE No 0.000 No Precipitation 10/10/2020 08:27 PM 10/10/2020 08:32 PM 0.000 0.000 0.000 0.000 0.000 Not Reported Not Reported
10/17/2020 03:53 PM 78.08 55.04 32.00 79.16 38.30 18.0 Not Reported 1.57 NE 2.68 W 5.14 NE No 0.000 No Precipitation 10/10/2020 08:27 PM 10/10/2020 08:32 PM 0.000 0.000 0.000 0.000 0.000 Not Reported Not Reported
10/17/2020 04:08 PM 78.08 55.04 32.18 79.16 38.30 18.0 Not Reported 1.79 SW 2.24 W 6.26 SE No 0.000 No Precipitation 10/10/2020 08:27 PM 10/10/2020 08:32 PM 0.000 0.000 0.000 0.000 0.000 Not Reported Not Reported
10/17/2020 04:23 PM 78.08 55.04 32.00 79.16 38.30 18.0 Not Reported 2.46 E 0.45 SE 4.25 E No 0.000 No Precipitation 10/10/2020 08:27 PM 10/10/2020 08:32 PM 0.000 0.000 0.000 0.000 0.000 Not Reported Not Reported
10/17/2020 04:38 PM 78.44 55.04 31.46 79.16 38.30 17.0 Not Reported 0.00 SW 0.45 E 6.26 E No 0.000 No Precipitation 10/10/2020 08:27 PM 10/10/2020 08:32 PM 0.000 0.000 0.000 0.000 0.000 Not Reported Not Reported
10/17/2020 04:53 PM 77.54 54.50 30.92 79.52 38.30 17.0 Not Reported 6.04 N 3.13 E 9.84 NW No 0.000 No Precipitation 10/10/2020 08:27 PM 10/10/2020 08:32 PM 0.000 0.000 0.000 0.000 0.000 Not Reported Not Reported
10/17/2020 05:08 PM 76.46 53.96 30.74 79.52 38.30 18.0 Not Reported 4.47 NE 4.70 NE 5.59 NE No 0.000 No Precipitation 10/10/2020 08:27 PM 10/10/2020 08:32 PM 0.000 0.000 0.000 0.000 0.000 Not Reported Not Reported
10/17/2020 05:23 PM 73.76 52.88 30.74 79.52 38.30 20.0 Not Reported 3.58 NW 2.91 N 5.14 NW No 0.000 No Precipitation 10/10/2020 08:27 PM 10/10/2020 08:32 PM 0.000 0.000 0.000 0.000 0.000 Not Reported Not Reported
10/17/2020 05:38 PM 71.24 51.98 31.64 79.52 38.30 22.0 Not Reported 3.36 N 4.70 N 4.92 NE No 0.000 No Precipitation 10/10/2020 08:27 PM 10/10/2020 08:32 PM 0.000 0.000 0.000 0.000 0.000 Not Reported Not Reported
10/17/2020 05:53 PM 70.16 51.80 32.54 79.52 38.30 24.0 Not Reported 2.24 NW 2.24 NW 5.59 NW No 0.000 No Precipitation 10/10/2020 08:27 PM 10/10/2020 08:32 PM 0.000 0.000 0.000 0.000 0.000 Not Reported Not Reported
10/17/2020 06:08 PM 68.00 50.72 32.18 79.52 38.30 26.0 Not Reported 2.46 NW 2.68 N 3.80 NW No 0.000 No Precipitation 10/10/2020 08:27 PM 10/10/2020 08:32 PM 0.000 0.000 0.000 0.000 0.000 Not Reported Not Reported
10/17/2020 06:23 PM 65.48 49.64 32.18 79.52 38.30 28.0 Not Reported 2.01 N 1.79 N 3.58 NW No 0.000 No Precipitation 10/10/2020 08:27 PM 10/10/2020 08:32 PM 0.000 0.000 0.000 0.000 0.000 Not Reported Not Reported
10/17/2020 06:38 PM 62.96 48.20 31.46 79.52 38.30 30.0 Not Reported 2.68 NW 1.34 NW 4.03 N No 0.000 No Precipitation 10/10/2020 08:27 PM 10/10/2020 08:32 PM 0.000 0.000 0.000 0.000 0.000 Not Reported Not Reported
10/17/2020 06:53 PM 61.52 47.48 32.00 79.52 38.30 32.0 Not Reported 1.57 W 2.01 W 2.46 W No 0.000 No Precipitation 10/10/2020 08:27 PM 10/10/2020 08:32 PM 0.000 0.000 0.000 0.000 0.000 Not Reported Not Reported
10/17/2020 07:08 PM 61.88 48.02 32.36 79.52 38.30 32.0 Not Reported 0.45 SW 0.89 SW 2.46 SE No 0.000 No Precipitation 10/10/2020 08:27 PM 10/10/2020 08:32 PM 0.000 0.000 0.000 0.000 0.000 Not Reported Not Reported
10/17/2020 07:23 PM 59.00 46.58 32.00 79.52 38.30 35.0 Not Reported 1.34 S 0.67 NW 2.46 S No 0.000 No Precipitation 10/10/2020 08:27 PM 10/10/2020 08:32 PM 0.000 0.000 0.000 0.000 0.000 Not Reported Not Reported
10/17/2020 07:38 PM 58.64 46.40 32.00 79.52 38.30 36.0 Not Reported 1.79 SE 1.34 S 2.24 SW No 0.000 No Precipitation 10/10/2020 08:27 PM 10/10/2020 08:32 PM 0.000 0.000 0.000 0.000 0.000 Not Reported Not Reported
10/17/2020 07:53 PM 57.20 45.68 32.00 79.52 38.30 38.0 Not Reported 0.45 NE 0.67 W 1.34 N No 0.000 No Precipitation 10/10/2020 08:27 PM 10/10/2020 08:32 PM 0.000 0.000 0.000 0.000 0.000 Not Reported Not Reported
10/17/2020 08:08 PM 55.76 44.78 31.46 79.52 38.30 39.0 Not Reported 1.12 W 1.34 W 1.79 NW No 0.000 No Precipitation 10/10/2020 08:27 PM 10/10/2020 08:32 PM 0.000 0.000 0.000 0.000 0.000 Not Reported Not Reported
10/17/2020 08:23 PM 55.58 44.78 31.82 79.52 38.30 40.0 Not Reported 1.12 W 2.24 NW 2.24 NW No 0.000 No Precipitation 10/10/2020 08:27 PM 10/10/2020 08:32 PM 0.000 0.000 0.000 0.000 0.000 Not Reported Not Reported
10/17/2020 08:38 PM 54.50 44.06 32.72 79.52 38.30 43.0 Not Reported 1.34 NW 0.67 N 2.24 W No 0.000 No Precipitation 10/10/2020 08:27 PM 10/10/2020 08:32 PM 0.000 0.000 0.000 0.000 0.000 Not Reported Not Reported
10/17/2020 08:53 PM 53.42 43.88 32.36 79.52 38.30 44.0 Not Reported 0.45 W 2.68 NW 2.68 NW No 0.000 No Precipitation 10/10/2020 08:27 PM 10/10/2020 08:32 PM 0.000 0.000 0.000 0.000 0.000 Not Reported Not Reported
10/17/2020 09:09 PM 52.88 43.70 32.18 79.52 38.30 45.0 Not Reported 0.67 NW 0.89 W 2.46 NW No 0.000 No Precipitation 10/10/2020 08:27 PM 10/10/2020 08:32 PM 0.000 0.000 0.000 0.000 0.000 Not Reported Not Reported
10/17/2020 09:23 PM 52.16 43.34 32.72 79.52 38.30 47.0 Not Reported 0.89 NW 1.57 W 2.24 NW No 0.000 No Precipitation 10/10/2020 08:27 PM 10/10/2020 08:32 PM 0.000 0.000 0.000 0.000 0.000 Not Reported Not Reported
10/17/2020 09:38 PM 52.34 42.98 31.82 79.52 38.30 44.0 Not Reported 1.34 N 0.67 SW 2.46 W No 0.000 No Precipitation 10/10/2020 08:27 PM 10/10/2020 08:32 PM 0.000 0.000 0.000 0.000 0.000 Not Reported Not Reported
10/17/2020 09:53 PM 51.62 43.16 32.90 79.52 38.30 48.0 Not Reported 0.89 NE 1.12 E 2.24 NW No 0.000 No Precipitation 10/10/2020 08:27 PM 10/10/2020 08:32 PM 0.000 0.000 0.000 0.000 0.000 Not Reported Not Reported
10/17/2020 10:08 PM 51.44 42.80 32.36 79.52 38.30 47.0 Not Reported 0.67 NW 1.34 NW 2.01 NW No 0.000 No Precipitation 10/10/2020 08:27 PM 10/10/2020 08:32 PM 0.000 0.000 0.000 0.000 0.000 Not Reported Not Reported
10/17/2020 10:23 PM 50.90 42.62 32.18 79.52 38.30 48.0 Not Reported 0.45 NW 0.00 NW 1.57 NW No 0.000 No Precipitation 10/10/2020 08:27 PM 10/10/2020 08:32 PM 0.000 0.000 0.000 0.000 0.000 Not Reported Not Reported
10/17/2020 10:39 PM 50.00 41.90 32.00 79.52 38.30 49.0 Not Reported 1.79 NW 1.12 NW 2.24 NW No 0.000 No Precipitation 10/10/2020 08:27 PM 10/10/2020 08:32 PM 0.000 0.000 0.000 0.000 0.000 Not Reported Not Reported
10/17/2020 10:53 PM 49.46 42.08 32.90 79.52 38.30 52.0 Not Reported 0.22 S 0.00 S 1.79 NW No 0.000 No Precipitation 10/10/2020 08:27 PM 10/10/2020 08:32 PM 0.000 0.000 0.000 0.000 0.000 Not Reported Not Reported
10/17/2020 11:08 PM 48.74 41.54 32.54 79.52 38.30 53.0 Not Reported 1.34 NW 1.57 NW 1.57 NW No 0.000 No Precipitation 10/10/2020 08:27 PM 10/10/2020 08:32 PM 0.000 0.000 0.000 0.000 0.000 Not Reported Not Reported
10/17/2020 11:23 PM 48.38 41.54 33.08 79.52 38.30 55.0 Not Reported 0.00 N 0.00 E 1.12 NW No 0.000 No Precipitation 10/10/2020 08:27 PM 10/10/2020 08:32 PM 0.000 0.000 0.000 0.000 0.000 Not Reported Not Reported
10/17/2020 11:38 PM 47.66 41.00 32.72 79.52 38.30 56.0 Not Reported 0.00 N 0.00 W 0.00 E No 0.000 No Precipitation 10/10/2020 08:27 PM 10/10/2020 08:32 PM 0.000 0.000 0.000 0.000 0.000 Not Reported Not Reported
10/17/2020 11:53 PM 47.48 41.18 33.62 79.52 38.30 58.0 Not Reported 0.89 NW 1.12 N 1.12 N No 0.000 No Precipitation 10/10/2020 08:27 PM 10/10/2020 08:32 PM 0.000 0.000 0.000 0.000 0.000 Not Reported Not Reported